Time;durP1;ratioP1;P1;durP2;ratioP2;P2;SDS_P1;SDS_P2;PMS_P1;PMS_P2;Temp;Humidity;BMP_temperature;BMP_pressure;BME280_temperature;BME280_humidity;BME280_pressure;Samples;Min_cycle;Max_cycle;Signal;HPM_P1;HPM_P2
2024/02/12 00:00:18;;;;;;;4.63;1.55;;;;;;;8.02;100.00;98577.69;5054514;28;20049;-79
2024/02/12 00:02:49;;;;;;;4.43;1.52;;;;;;;8.00;100.00;98579.59;5068571;28;20444;-78
2024/02/12 00:05:17;;;;;;;2.78;1.70;;;;;;;7.37;100.00;98487.13;5056317;28;20053;-79
2024/02/12 00:07:47;;;;;;;3.78;1.65;;;;;;;7.96;100.00;98579.88;5058670;28;20590;-79
2024/02/12 00:10:15;;;;;;;;;;;;;;;7.99;100.00;98598.97;5067521;28;20083;-79
2024/02/12 00:12:45;;;;;;;3.55;2.00;;;;;;;7.99;100.00;98591.06;5054326;28;20437;-78
2024/02/12 00:15:14;;;;;;;2.83;1.20;;;;;;;7.99;100.00;98593.72;5067771;28;20706;-78
2024/02/12 00:17:49;;;;;;;3.15;1.80;;;;;;;7.76;100.00;98549.53;5062253;28;20041;-81
2024/02/12 00:20:18;;;;;;;3.25;1.52;;;;;;;8.02;100.00;98593.50;5060146;28;20037;-79
2024/02/12 00:22:47;;;;;;;4.03;1.70;;;;;;;8.02;100.00;98584.75;5074962;28;20048;-78
2024/02/12 00:25:16;;;;;;;5.68;1.80;;;;;;;7.89;100.00;98563.59;5062132;28;20052;-78
2024/02/12 00:27:44;;;;;;;5.82;1.90;;;;;;;7.84;100.00;98549.06;5051112;28;20048;-76
2024/02/12 00:30:14;;;;;;;2.65;1.40;;;;;;;7.97;100.00;98560.47;5077263;28;20045;-77
2024/02/12 00:32:43;;;;;;;3.10;1.35;;;;;;;8.25;100.00;98599.91;5051207;28;20078;-78
2024/02/12 00:35:15;;;;;;;3.92;1.88;;;;;;;8.25;100.00;98592.00;5063737;28;20071;-80
2024/02/12 00:37:44;;;;;;;4.55;2.08;;;;;;;8.00;100.00;98555.03;5061242;28;20041;-77
2024/02/12 00:40:16;;;;;;;3.28;2.20;;;;;;;8.20;100.00;98590.59;5077623;28;20037;-77
2024/02/12 00:42:45;;;;;;;3.72;1.45;;;;;;;8.20;100.00;98596.72;5064654;28;20055;-79
2024/02/12 00:45:14;;;;;;;4.82;1.70;;;;;;;8.16;100.00;98597.03;5059396;28;20036;-78
2024/02/12 00:47:43;;;;;;;2.65;1.73;;;;;;;8.07;100.00;98595.81;5067274;28;20124;-79
2024/02/12 00:50:11;;;;;;;2.47;1.65;;;;;;;8.03;100.00;98611.00;5062566;28;20044;-78
2024/02/12 00:52:39;;;;;;;3.20;1.70;;;;;;;8.04;100.00;98596.03;5068974;28;20059;-78
2024/02/12 00:55:13;;;;;;;3.72;1.52;;;;;;;8.10;100.00;98585.09;5068272;28;20067;-80
2024/02/12 00:57:44;;;;;;;3.17;1.67;;;;;;;8.18;100.00;98595.16;5061888;28;20048;-79
2024/02/12 01:00:15;;;;;;;3.75;1.65;;;;;;;8.20;100.00;98601.13;5044865;28;20056;-78
2024/02/12 01:02:45;;;;;;;2.80;1.70;;;;;;;8.25;100.00;98601.69;5067401;28;20102;-79
2024/02/12 01:05:13;;;;;;;4.38;1.73;;;;;;;8.05;100.00;98569.56;5050496;28;20143;-79
2024/02/12 01:07:42;;;;;;;3.65;1.45;;;;;;;8.09;100.00;98549.13;5057649;28;20044;-78
2024/02/12 01:10:11;;;;;;;2.92;1.52;;;;;;;8.31;100.00;98598.66;5046903;28;20048;-79
2024/02/12 01:12:40;;;;;;;2.40;1.35;;;;;;;8.28;100.00;98606.78;5066273;28;20437;-79
2024/02/12 01:15:10;;;;;;;3.25;1.70;;;;;;;8.28;100.00;98612.88;5065253;28;20060;-79
2024/02/12 01:17:40;;;;;;;2.97;1.50;;;;;;;8.00;100.00;98563.78;5064165;28;20048;-79
2024/02/12 01:20:17;;;;;;;2.63;1.60;;;;;;;7.83;100.00;98548.22;5063736;28;20069;-78
2024/02/12 01:22:45;;;;;;;4.55;1.38;;;;;;;8.25;100.00;98612.25;5067779;28;20051;-79
2024/02/12 01:25:13;;;;;;;5.93;1.95;;;;;;;8.29;100.00;98611.09;5062826;28;20097;-80
2024/02/12 01:27:41;;;;;;;6.63;1.73;;;;;;;8.15;100.00;98595.34;5044881;28;20118;-78
2024/02/12 01:30:13;;;;;;;5.03;1.98;;;;;;;8.21;100.00;98606.31;5049011;28;20063;-78
2024/02/12 01:32:41;;;;;;;2.97;1.63;;;;;;;8.28;100.00;98619.97;5070912;28;20502;-78
2024/02/12 01:35:09;;;;;;;3.03;1.67;;;;;;;7.71;100.00;98522.66;5047978;28;20094;-78
2024/02/12 01:37:38;;;;;;;5.93;2.30;;;;;;;8.22;100.00;98623.81;5059378;28;20052;-79
2024/02/12 01:40:08;;;;;;;3.50;1.90;;;;;;;8.10;100.00;98625.47;5063465;28;20068;-77
2024/02/12 01:42:37;;;;;;;4.47;2.13;;;;;;;7.77;100.00;98589.91;5047672;28;20045;-78
2024/02/12 01:45:17;;;;;;;3.72;2.33;;;;;;;7.92;100.00;98626.66;5044772;28;20052;-79
2024/02/12 01:47:47;;;;;;;4.43;2.85;;;;;;;7.83;100.00;98635.16;5060312;28;20081;-77
2024/02/12 01:50:17;;;;;;;3.28;2.30;;;;;;;7.66;100.00;98611.69;5061852;28;20049;-77
2024/02/12 01:52:48;;;;;;;3.83;2.17;;;;;;;7.79;100.00;98631.03;5064812;28;20049;-79
2024/02/12 01:55:21;;;;;;;3.88;2.40;;;;;;;7.71;100.00;98625.41;5064162;28;20079;-79
2024/02/12 01:57:51;;;;;;;4.72;1.92;;;;;;;7.83;100.00;98637.81;5053646;28;20045;-78
2024/02/12 02:00:21;;;;;;;3.53;1.90;;;;;;;7.34;100.00;98543.47;5071835;28;20112;-79
2024/02/12 02:03:05;;;;;;;3.90;2.30;;;;;;;7.40;100.00;98569.38;5075690;28;20048;-77
2024/02/12 02:05:33;;;;;;;6.07;2.35;;;;;;;7.89;100.00;98647.94;5063598;28;20051;-78
2024/02/12 02:08:01;;;;;;;5.18;2.25;;;;;;;7.88;100.00;98646.25;5064188;28;20060;-77
2024/02/12 02:10:29;;;;;;;3.42;2.15;;;;;;;7.99;100.00;98648.22;5061069;28;20049;-78
2024/02/12 02:12:59;;;;;;;3.63;2.05;;;;;;;7.58;100.00;98572.63;5074347;28;20072;-77
2024/02/12 02:15:30;;;;;;;2.83;1.92;;;;;;;7.99;100.00;98651.69;5063280;28;20059;-78
2024/02/12 02:17:58;;;;;;;5.28;2.20;;;;;;;7.70;100.00;98603.50;5055193;28;20076;-79
2024/02/12 02:20:30;;;;;;;2.83;2.17;;;;;;;7.90;100.00;98649.63;5045068;28;20565;-79
2024/02/12 02:23:00;;;;;;;3.80;2.00;;;;;;;7.91;100.00;98659.22;5056940;28;20521;-80
2024/02/12 02:25:32;;;;;;;3.05;1.85;;;;;;;7.94;100.00;98659.03;5069521;28;20090;-77
2024/02/12 02:28:01;;;;;;;4.90;2.00;;;;;;;7.81;100.00;98633.56;5046954;28;20056;-79
2024/02/12 02:30:30;;;;;;;3.13;2.27;;;;;;;7.95;100.00;98659.88;5060294;28;20040;-79
2024/02/12 02:32:57;;;;;;;4.15;1.65;;;;;;;7.96;100.00;98651.88;5049252;28;20521;-78
2024/02/12 02:35:26;;;;;;;3.60;1.75;;;;;;;7.92;100.00;98653.03;5069051;28;20040;-78
2024/02/12 02:37:54;;;;;;;3.38;2.20;;;;;;;7.86;100.00;98658.69;5067372;28;20086;-78
2024/02/12 02:40:23;;;;;;;3.38;1.92;;;;;;;7.81;100.00;98655.50;5058992;28;20051;-79
2024/02/12 02:42:56;;;;;;;3.17;1.98;;;;;;;7.18;100.00;98566.41;5050038;28;20064;-78
2024/02/12 02:45:26;;;;;;;4.35;2.13;;;;;;;7.49;100.00;98612.75;5062928;28;20109;-77
2024/02/12 02:47:56;;;;;;;3.53;2.45;;;;;;;7.76;100.00;98647.03;5064405;28;20122;-79
2024/02/12 02:50:26;;;;;;;5.03;2.63;;;;;;;7.80;100.00;98642.41;5027301;28;20068;-77
2024/02/12 02:52:54;;;;;;;5.03;2.40;;;;;;;7.62;100.00;98618.06;5060422;28;20037;-78
2024/02/12 02:55:24;;;;;;;2.80;2.30;;;;;;;7.88;100.00;98659.41;5057944;28;20098;-78
2024/02/12 02:58:01;;;;;;;2.58;1.77;;;;;;;7.83;100.00;98663.31;5045865;28;20059;-78
2024/02/12 03:00:30;;;;;;;3.40;2.25;;;;;;;7.79;100.00;98667.91;5063971;28;20480;-77
2024/02/12 03:02:58;;;;;;;2.78;2.17;;;;;;;7.56;100.00;98635.09;5059239;28;20036;-77
2024/02/12 03:05:28;;;;;;;4.35;2.40;;;;;;;7.77;100.00;98666.31;5068430;28;20049;-77
2024/02/12 03:07:58;;;;;;;3.90;2.13;;;;;;;7.71;100.00;98675.47;5061819;28;20361;-79
2024/02/12 03:10:26;;;;;;;4.82;2.58;;;;;;;7.32;100.00;98602.41;5060004;28;20055;-76
2024/02/12 03:12:56;;;;;;;2.22;1.92;;;;;;;7.76;100.00;98678.66;5062085;28;20424;-79
2024/02/12 03:15:26;;;;;;;2.47;2.27;;;;;;;7.67;100.00;98650.25;5057630;28;20052;-78
2024/02/12 03:17:54;;;;;;;4.03;2.20;;;;;;;7.34;100.00;98603.16;5062597;28;20036;-77
2024/02/12 03:20:24;;;;;;;2.88;2.30;;;;;;;7.82;100.00;98685.34;5062767;28;20064;-79
2024/02/12 03:22:53;;;;;;;4.93;2.45;;;;;;;7.81;100.00;98681.84;5042793;28;20052;-79
2024/02/12 03:25:22;;;;;;;4.00;2.30;;;;;;;7.79;100.00;98698.69;5055513;28;20055;-78
2024/02/12 03:27:51;;;;;;;5.63;3.13;;;;;;;7.68;100.00;98675.66;5054800;28;20536;-79
2024/02/12 03:30:19;;;;;;;4.07;2.45;;;;;;;7.74;100.00;98698.97;5070545;28;20040;-79
2024/02/12 03:32:49;;;;;;;4.18;3.25;;;;;;;7.72;100.00;98695.59;5057870;28;20078;-79
2024/02/12 03:35:17;;;;;;;5.40;2.92;;;;;;;7.46;100.00;98660.34;5045300;28;20072;-79
2024/02/12 03:37:45;;;;;;;3.90;3.08;;;;;;;7.75;100.00;98703.31;5033739;28;20079;-77
2024/02/12 03:40:16;;;;;;;5.13;3.20;;;;;;;7.79;100.00;98725.91;5061794;28;20114;-79
2024/02/12 03:42:44;;;;;;;6.80;3.00;;;;;;;7.85;100.00;98709.72;5060963;28;20052;-76
2024/02/12 03:45:15;;;;;;;5.65;2.95;;;;;;;7.87;100.00;98707.81;5044827;28;20051;-77
2024/02/12 03:47:45;;;;;;;;;;;;;;;7.85;100.00;98714.97;5062499;28;20040;-78
2024/02/12 04:01:49;;;;;;;4.65;3.25;;;;;;;7.73;100.00;98740.28;5056489;28;20044;-80
2024/02/12 04:04:19;;;;;;;5.88;3.47;;;;;;;7.74;100.00;98747.25;5082174;28;20056;-78
2024/02/12 04:06:50;;;;;;;5.85;3.67;;;;;;;7.82;100.00;98746.78;5065653;28;20062;-77
2024/02/12 04:09:18;;;;;;;4.50;3.47;;;;;;;7.80;100.00;98747.81;5050981;28;20040;-78
2024/02/12 04:11:46;;;;;;;6.75;3.30;;;;;;;7.87;100.00;98749.16;5062520;28;20102;-80
2024/02/12 04:14:15;;;;;;;5.40;3.60;;;;;;;7.88;100.00;98762.19;5046763;28;20121;-78
2024/02/12 04:16:50;;;;;;;4.95;3.22;;;;;;;7.84;100.00;98765.16;5062205;28;20065;-77
2024/02/12 04:19:22;;;;;;;7.15;3.97;;;;;;;7.79;100.00;98773.31;5049802;28;20095;-77
2024/02/12 04:21:53;;;;;;;6.18;4.47;;;;;;;7.21;100.00;98689.97;5044525;28;20056;-78
2024/02/12 04:24:23;;;;;;;;;;;;;;;7.72;100.00;98766.72;5073042;28;20041;-77
2024/02/12 04:26:52;;;;;;;7.50;4.35;;;;;;;7.68;100.00;98779.25;5069168;28;19955;-78
2024/02/12 04:29:24;;;;;;;7.63;4.47;;;;;;;7.68;100.00;98768.72;5061199;28;20044;-76
2024/02/12 04:31:56;;;;;;;8.45;4.47;;;;;;;7.69;100.00;98772.19;5061330;28;20133;-79
2024/02/12 04:34:25;;;;;;;5.85;4.82;;;;;;;7.70;100.00;98780.00;5083179;28;20081;-77
2024/02/12 04:36:58;;;;;;;5.75;4.40;;;;;;;7.73;100.00;98778.94;5065044;28;20628;-79
2024/02/12 04:39:26;;;;;;;7.00;4.10;;;;;;;7.73;100.00;98777.16;5066149;28;20040;-77
2024/02/12 04:41:54;;;;;;;5.43;4.03;;;;;;;6.96;100.00;98663.41;5048194;28;20051;-77
2024/02/12 04:44:23;;;;;;;7.50;4.00;;;;;;;7.39;100.00;98752.06;5024029;28;20036;-77
2024/02/12 04:46:53;;;;;;;4.60;3.50;;;;;;;7.59;100.00;98784.22;5073137;28;20077;-78
2024/02/12 04:49:21;;;;;;;4.65;3.47;;;;;;;7.56;100.00;98785.25;5060141;28;20536;-78
2024/02/12 04:51:49;;;;;;;5.18;3.50;;;;;;;7.56;100.00;98782.59;5064984;28;20051;-79
2024/02/12 04:54:19;;;;;;;4.78;3.30;;;;;;;7.48;100.00;98768.22;5076907;28;20173;-78
2024/02/12 04:56:46;;;;;;;4.85;3.25;;;;;;;7.36;100.00;98757.50;5068423;28;20113;-79
2024/02/12 04:59:18;;;;;;;4.82;3.42;;;;;;;7.52;100.00;98775.00;5063131;28;20138;-80
2024/02/12 05:01:46;;;;;;;6.68;3.65;;;;;;;7.60;100.00;98799.09;5064796;28;20085;-79
2024/02/12 05:04:20;;;;;;;7.47;3.63;;;;;;;7.60;100.00;98805.19;5062476;28;20120;-78
2024/02/12 05:06:48;;;;;;;5.00;3.30;;;;;;;7.60;100.00;98807.00;5067309;28;20518;-79
2024/02/12 05:09:16;;;;;;;5.30;3.28;;;;;;;7.48;100.00;98794.56;5068045;28;20129;-78
2024/02/12 05:11:45;;;;;;;5.72;3.55;;;;;;;7.56;100.00;98814.22;5062030;28;20045;-80
2024/02/12 05:14:13;;;;;;;4.47;3.05;;;;;;;7.12;100.00;98739.66;5064395;28;20485;-78
2024/02/12 05:16:45;;;;;;;5.63;3.25;;;;;;;7.62;100.00;98828.81;5063525;28;20140;-78
2024/02/12 05:24:47;;;;;;;3.67;2.60;;;;;;;7.26;100.00;98774.75;5067873;28;20049;-77
2024/02/12 05:27:17;;;;;;;6.43;2.92;;;;;;;7.21;100.00;98773.34;5078943;28;20055;-78
2024/02/12 05:29:45;;;;;;;4.00;2.22;;;;;;;7.57;100.00;98836.13;5057210;28;20037;-78
2024/02/12 05:32:15;;;;;;;3.17;2.45;;;;;;;7.61;100.00;98837.66;5059546;28;20048;-80
2024/02/12 05:34:46;;;;;;;4.38;2.45;;;;;;;7.64;100.00;98834.84;5064494;28;20087;-78
2024/02/12 05:37:14;;;;;;;3.05;2.00;;;;;;;7.36;100.00;98790.88;5064780;28;20036;-78
2024/02/12 05:39:46;;;;;;;3.75;1.90;;;;;;;7.56;100.00;98830.03;5080822;28;20128;-79
2024/02/12 05:42:14;;;;;;;2.58;1.98;;;;;;;7.01;100.00;98742.94;5062429;28;20052;-79
2024/02/12 05:44:43;;;;;;;2.95;1.90;;;;;;;7.34;100.00;98803.28;5061049;28;20113;-79
2024/02/12 05:47:12;;;;;;;4.05;1.88;;;;;;;6.79;100.00;98713.53;5058169;28;20037;-79
2024/02/12 05:49:40;;;;;;;4.25;1.92;;;;;;;7.65;100.00;98855.00;5063983;28;20047;-78
2024/02/12 05:52:08;;;;;;;1.90;1.67;;;;;;;7.65;100.00;98855.00;5060127;28;20045;-79
2024/02/12 05:54:37;;;;;;;2.33;1.60;;;;;;;7.63;100.00;98856.88;5059651;28;20514;-78
2024/02/12 05:57:06;;;;;;;3.22;1.80;;;;;;;7.47;100.00;98832.38;5066409;28;20456;-78
2024/02/12 05:59:36;;;;;;;3.75;2.28;;;;;;;7.65;100.00;98858.47;5060519;28;20392;-78
2024/02/12 06:02:06;;;;;;;2.38;1.63;;;;;;;7.67;100.00;98861.88;5073444;28;20045;-78
2024/02/12 06:04:36;;;;;;;3.00;1.30;;;;;;;7.67;100.00;98863.66;5048579;28;20044;-78
2024/02/12 06:07:04;;;;;;;1.50;1.40;;;;;;;7.66;100.00;98867.22;5053461;28;20040;-79
2024/02/12 06:09:32;;;;;;;2.28;1.70;;;;;;;7.44;100.00;98838.66;5060637;28;20057;-78
2024/02/12 06:12:00;;;;;;;2.13;1.60;;;;;;;7.68;100.00;98879.38;5068036;28;20056;-78
2024/02/12 06:14:29;;;;;;;2.17;1.50;;;;;;;7.70;100.00;98868.75;5030140;28;20044;-78
2024/02/12 06:16:57;;;;;;;2.53;1.70;;;;;;;7.33;100.00;98815.59;5047681;28;20051;-79
2024/02/12 06:19:26;;;;;;;2.42;1.58;;;;;;;7.20;100.00;98792.72;5037891;28;20037;-78
2024/02/12 06:21:55;;;;;;;3.83;1.85;;;;;;;7.69;100.00;98882.84;5062835;28;20114;-78
2024/02/12 06:24:22;;;;;;;2.03;1.90;;;;;;;7.67;100.00;98895.28;5066962;28;20036;-77
2024/02/12 06:26:52;;;;;;;3.47;1.85;;;;;;;7.68;100.00;98894.34;5064196;28;20428;-77
2024/02/12 06:29:20;;;;;;;3.90;1.95;;;;;;;7.68;100.00;98905.72;5082583;28;20216;-78
2024/02/12 06:31:49;;;;;;;2.25;1.80;;;;;;;7.68;100.00;98905.72;5062115;28;20056;-77
2024/02/12 06:34:17;;;;;;;2.97;1.90;;;;;;;7.69;100.00;98904.78;5063386;28;20044;-78
2024/02/12 06:36:46;;;;;;;2.50;1.45;;;;;;;7.55;100.00;98896.00;5062123;28;20049;-79
2024/02/12 06:39:17;;;;;;;1.67;1.52;;;;;;;7.78;100.00;98924.47;5045131;28;20044;-79
2024/02/12 06:41:45;;;;;;;2.72;1.98;;;;;;;7.80;100.00;98924.38;5061319;28;20045;-79
2024/02/12 06:44:15;;;;;;;3.25;1.55;;;;;;;7.79;100.00;98933.22;5068365;28;20086;-80
2024/02/12 06:46:44;;;;;;;3.13;2.05;;;;;;;7.81;100.00;98933.97;5063066;28;20051;-77
2024/02/12 06:49:14;;;;;;;4.50;2.45;;;;;;;7.80;100.00;98938.41;5081222;28;20100;-81
2024/02/12 06:51:43;;;;;;;3.67;2.08;;;;;;;6.93;100.00;98796.00;5064930;28;20052;-78
2024/02/12 06:54:12;;;;;;;4.55;2.35;;;;;;;7.48;100.00;98894.66;5095518;28;20053;-78
2024/02/12 06:56:42;;;;;;;5.47;2.25;;;;;;;7.74;100.00;98946.66;5048051;28;20040;-79
2024/02/12 06:59:14;;;;;;;5.47;2.53;;;;;;;7.65;100.00;98947.19;5076841;28;20048;-78
2024/02/12 07:01:43;;;;;;;4.72;2.53;;;;;;;7.74;100.00;98959.81;5042528;28;20037;-78
2024/02/12 07:04:12;;;;;;;4.75;2.40;;;;;;;7.72;100.00;98957.28;5061215;28;20094;-78
2024/02/12 07:06:40;;;;;;;6.35;3.05;;;;;;;7.71;100.00;98968.75;5075787;28;20048;-78
2024/02/12 07:09:09;;;;;;;9.55;2.92;;;;;;;7.69;100.00;98975.06;5078698;28;20048;-77
2024/02/12 07:11:39;;;;;;;4.95;2.72;;;;;;;7.32;100.00;98905.22;5076222;28;20528;-77
2024/02/12 07:14:08;;;;;;;6.43;3.13;;;;;;;7.67;100.00;98975.16;5058271;28;20518;-76
2024/02/12 07:16:37;;;;;;;9.35;3.45;;;;;;;7.66;100.00;98975.25;5061360;28;20050;-78
2024/02/12 07:19:05;;;;;;;4.95;2.95;;;;;;;7.51;100.00;98952.41;5063416;28;20051;-78
2024/02/12 07:21:33;;;;;;;8.48;3.45;;;;;;;7.67;100.00;98985.69;5075837;28;20094;-77
2024/02/12 07:24:01;;;;;;;5.30;3.22;;;;;;;7.69;100.00;98990.88;5065611;28;20159;-78
2024/02/12 07:26:30;;;;;;;5.95;3.30;;;;;;;7.71;100.00;98986.38;5076610;28;20068;-77
2024/02/12 07:29:13;;;;;;;7.20;3.50;;;;;;;7.33;100.00;98923.56;5074625;28;20097;-78
2024/02/12 07:31:42;;;;;;;7.38;3.90;;;;;;;7.19;100.00;98878.75;5047290;28;20044;-79
2024/02/12 07:34:11;;;;;;;8.40;3.70;;;;;;;8.07;100.00;99004.44;5058434;28;20067;-78
2024/02/12 07:36:44;;;;;;;6.47;4.22;;;;;;;8.04;100.00;99007.25;5047835;28;20052;-78
2024/02/12 07:39:12;;;;;;;8.32;4.45;;;;;;;8.03;100.00;99003.78;5074934;28;20108;-78
2024/02/12 07:41:41;;;;;;;7.90;4.30;;;;;;;8.08;100.00;99017.53;5067993;28;20185;-77
2024/02/12 07:44:10;;;;;;;8.20;4.25;;;;;;;8.04;100.00;99012.53;5052043;28;20155;-78
2024/02/12 07:46:40;;;;;;;9.30;3.88;;;;;;;7.77;100.00;98964.91;5071303;28;20131;-78
2024/02/12 07:49:10;;;;;;;5.43;3.75;;;;;;;7.38;100.00;98899.59;5063258;28;20048;-78
2024/02/12 07:51:40;;;;;;;6.07;3.72;;;;;;;8.06;100.00;99018.56;5063009;28;20072;-79
2024/02/12 07:54:08;;;;;;;9.33;4.40;;;;;;;8.03;100.00;99024.88;5061162;28;20058;-79
2024/02/12 07:56:41;;;;;;;8.18;4.53;;;;;;;7.80;100.00;98987.63;5068119;28;20049;-77
2024/02/12 07:59:10;;;;;;;5.50;3.88;;;;;;;7.58;100.00;98962.50;5045776;28;20040;-76
2024/02/12 08:01:42;;;;;;;6.80;4.20;;;;;;;7.94;100.00;99035.94;5057761;28;20105;-78
2024/02/12 08:04:11;;;;;;;5.53;4.22;;;;;;;7.93;100.00;99039.53;5047056;28;20051;-78
2024/02/12 08:06:40;;;;;;;7.70;4.63;;;;;;;7.92;100.00;99042.25;5061853;28;20064;-75
2024/02/12 08:09:10;;;;;;;7.15;4.65;;;;;;;7.77;100.00;99017.63;5075304;28;20052;-78
2024/02/12 08:11:39;;;;;;;6.32;4.30;;;;;;;7.95;100.00;99040.28;5043752;28;20532;-78
2024/02/12 08:14:11;;;;;;;8.45;5.60;;;;;;;8.04;100.00;99045.03;5067048;28;20048;-77
2024/02/12 08:16:45;;;;;;;9.35;5.18;;;;;;;8.05;100.00;99054.63;5062372;28;20064;-79
2024/02/12 08:19:14;;;;;;;8.50;5.35;;;;;;;8.09;100.00;99064.06;5063218;28;20545;-76
2024/02/12 08:21:42;;;;;;;7.38;4.88;;;;;;;8.11;100.00;99061.34;5058081;28;20161;-77
2024/02/12 08:24:10;;;;;;;8.23;5.90;;;;;;;7.92;100.00;99016.75;5057990;28;20060;-77
2024/02/12 08:26:40;;;;;;;8.60;5.90;;;;;;;8.24;100.00;99066.75;5063780;28;20069;-78
2024/02/12 08:29:09;;;;;;;10.45;5.68;;;;;;;8.32;100.00;99067.19;5060635;28;20461;-79
2024/02/12 08:31:37;;;;;;;8.02;5.40;;;;;;;8.39;100.00;99073.78;5073957;28;20049;-77
2024/02/12 08:34:07;;;;;;;10.70;5.40;;;;;;;8.35;100.00;99080.19;5059812;28;20045;-77
2024/02/12 08:36:35;;;;;;;10.35;5.53;;;;;;;8.07;100.00;99044.00;5069815;28;20522;-77
2024/02/12 08:39:04;;;;;;;13.30;5.68;;;;;;;8.33;100.00;99088.22;5081763;28;20044;-75
2024/02/12 08:41:32;;;;;;;8.25;5.38;;;;;;;8.45;100.00;99091.91;5062680;28;20044;-77
2024/02/12 08:44:00;;;;;;;10.43;5.68;;;;;;;7.85;100.00;98993.47;5052631;28;20048;-79
2024/02/12 08:46:31;;;;;;;8.85;5.32;;;;;;;8.46;100.00;99090.97;5049214;28;20036;-78
2024/02/12 08:48:58;;;;;;;11.10;5.68;;;;;;;8.51;100.00;99095.94;5081495;28;20045;-78
2024/02/12 08:51:33;;;;;;;11.55;5.53;;;;;;;8.51;100.00;99095.94;5065003;28;20068;-80
2024/02/12 08:54:01;;;;;;;8.57;5.70;;;;;;;8.58;100.00;99097.31;5078635;28;20052;-77
2024/02/12 08:56:36;;;;;;;10.57;5.45;;;;;;;8.58;100.00;99108.69;5065004;28;20045;-78
2024/02/12 08:59:06;;;;;;;9.32;6.22;;;;;;;8.59;100.00;99101.63;5063423;28;20036;-78
2024/02/12 09:01:36;;;;;;;11.60;6.15;;;;;;;8.42;100.00;99089.44;5061329;28;20048;-79
2024/02/12 09:04:04;;;;;;;10.23;5.88;;;;;;;8.16;100.00;99064.56;5047994;28;20052;-78
2024/02/12 09:06:34;;;;;;;12.15;5.90;;;;;;;8.30;100.00;99092.78;5068158;28;20044;-78
2024/02/12 09:09:04;;;;;;;12.52;6.35;;;;;;;8.49;100.00;99122.44;5066981;28;20049;-78
2024/02/12 09:11:32;;;;;;;11.10;5.88;;;;;;;8.24;100.00;99083.41;5049185;28;20048;-77
2024/02/12 09:14:02;;;;;;;;;;;;;;;8.57;100.00;99129.91;5066560;28;20135;-80
2024/02/12 09:16:31;;;;;;;9.05;5.50;;;;;;;8.49;100.00;99106.63;5066433;28;19952;-78
2024/02/12 09:18:59;;;;;;;12.07;6.22;;;;;;;8.69;100.00;99134.44;5067441;28;20032;-77
2024/02/12 09:21:28;;;;;;;30.45;7.18;;;;;;;8.66;100.00;99113.50;5050591;28;20051;-77
2024/02/12 09:23:57;;;;;;;10.13;5.93;;;;;;;8.92;100.00;99143.66;5065381;28;20045;-78
2024/02/12 09:26:27;;;;;;;14.55;6.72;;;;;;;8.45;100.00;99070.81;5088665;28;20068;-78
2024/02/12 09:28:56;;;;;;;14.90;6.13;;;;;;;9.02;100.00;99128.94;5063966;28;20040;-77
2024/02/12 09:31:27;;;;;;;9.90;6.10;;;;;;;9.13;100.00;99137.06;5081246;28;20044;-79
2024/02/12 09:33:56;;;;;;;15.23;6.30;;;;;;;9.28;100.00;99161.72;5078219;28;20127;-79
2024/02/12 09:36:25;;;;;;;11.07;6.10;;;;;;;8.80;100.00;99089.81;5084407;28;20050;-78
2024/02/12 09:38:53;;;;;;;13.05;5.85;;;;;;;9.30;100.00;99165.06;5050479;28;20044;-79
2024/02/12 09:41:28;;;;;;;8.27;4.90;;;;;;;8.58;100.00;99048.00;5068080;28;20180;-77
2024/02/12 09:43:57;;;;;;;9.52;5.60;;;;;;;9.33;100.00;99156.97;5085058;28;20048;-80
2024/02/12 09:46:27;;;;;;;15.25;5.80;;;;;;;9.36;100.00;99168.19;5064307;28;20033;-79
2024/02/12 09:48:58;;;;;;;11.27;5.33;;;;;;;9.30;100.00;99165.06;5065629;28;20063;-79
2024/02/12 09:51:27;;;;;;;9.10;5.43;;;;;;;9.25;100.00;99175.94;5067956;28;20051;-80
2024/02/12 09:53:57;;;;;;;9.40;5.35;;;;;;;9.28;100.00;99175.75;5063396;28;20052;-80
2024/02/12 09:56:28;;;;;;;12.05;5.72;;;;;;;8.95;100.00;99119.72;5064005;28;20051;-79
2024/02/12 09:58:57;;;;;;;9.13;5.43;;;;;;;8.70;100.00;99075.44;5068693;28;20548;-79
2024/02/12 10:01:27;;;;;;;12.82;5.65;;;;;;;9.28;100.00;99183.69;5046356;28;20049;-77
2024/02/12 10:03:56;;;;;;;7.78;5.15;;;;;;;9.20;100.00;99188.56;5064798;28;20045;-79
2024/02/12 10:06:25;;;;;;;7.28;5.22;;;;;;;9.24;100.00;99195.38;5071278;28;20567;-81
2024/02/12 10:09:05;;;;;;;10.18;5.38;;;;;;;9.10;100.00;99190.06;5072877;28;20053;-80
2024/02/12 10:11:37;;;;;;;8.95;5.20;;;;;;;9.09;100.00;99194.50;5067720;28;20067;-77
2024/02/12 10:14:05;;;;;;;11.10;5.28;;;;;;;8.62;100.00;99122.56;5084969;28;20048;-79
2024/02/12 10:16:34;;;;;;;9.75;4.75;;;;;;;8.86;100.00;99173.03;5086855;28;20025;-80
2024/02/12 10:19:03;;;;;;;8.57;5.00;;;;;;;8.99;100.00;99206.53;5083795;28;20067;-76
2024/02/12 10:21:36;;;;;;;9.40;4.97;;;;;;;8.99;100.00;99210.97;5079272;28;20060;-77
2024/02/12 10:24:05;;;;;;;8.75;5.63;;;;;;;8.89;100.00;99210.69;5067519;28;20116;-76
2024/02/12 10:26:33;;;;;;;7.50;4.65;;;;;;;8.97;100.00;99213.69;5055866;28;20439;-79
2024/02/12 10:29:04;;;;;;;8.38;4.47;;;;;;;8.99;100.00;99218.88;5031017;28;20033;-78
2024/02/12 10:31:32;;;;;;;10.70;5.25;;;;;;;9.04;100.00;99217.69;5068500;28;20107;-76
2024/02/12 10:34:09;;;;;;;9.48;4.60;;;;;;;9.07;100.00;99222.78;5064124;28;20055;-79
2024/02/12 10:36:44;;;;;;;9.48;5.10;;;;;;;8.98;100.00;99217.19;5034324;28;20072;-78
2024/02/12 10:39:13;;;;;;;8.27;4.43;;;;;;;8.37;100.00;99145.09;5065569;28;20044;-77
2024/02/12 10:41:47;;;;;;;10.00;4.33;;;;;;;8.52;100.00;99197.91;5070245;28;20052;-78
2024/02/12 10:44:18;;;;;;;7.57;4.45;;;;;;;8.78;100.00;99224.50;5055168;28;20037;-77
2024/02/12 10:46:49;;;;;;;6.95;4.22;;;;;;;8.74;100.00;99230.91;5062389;28;20040;-79
2024/02/12 10:49:18;;;;;;;8.30;4.90;;;;;;;8.31;100.00;99200.81;5069052;28;20085;-78
2024/02/12 10:51:51;;;;;;;8.43;4.63;;;;;;;8.25;100.00;99190.59;5062887;28;20048;-77
2024/02/12 10:54:21;;;;;;;7.63;5.07;;;;;;;8.19;100.00;99184.81;5070217;28;20087;-80
2024/02/12 10:56:50;;;;;;;9.20;5.07;;;;;;;8.47;100.00;99242.19;5052047;28;20066;-78
2024/02/12 10:59:19;;;;;;;8.25;4.95;;;;;;;7.90;100.00;99139.84;5084066;28;20619;-75
2024/02/12 11:01:50;;;;;;;7.57;4.82;;;;;;;8.17;100.00;99195.47;5073885;28;20056;-79
2024/02/12 11:04:18;;;;;;;10.48;5.38;;;;;;;8.52;100.00;99250.69;5084875;28;20082;-76
2024/02/12 11:06:49;;;;;;;11.88;5.70;;;;;;;8.12;100.00;99165.88;5074919;28;20044;-77
2024/02/12 11:09:16;;;;;;;;;;;;;;;8.72;100.00;99240.69;5067559;28;20032;-77
2024/02/12 11:11:47;;;;;;;11.13;5.38;;;;;;;8.77;100.00;99248.34;5080855;28;19924;-80
2024/02/12 11:14:18;;;;;;;10.88;5.93;;;;;;;8.80;100.00;99245.53;5078972;28;20091;-79
2024/02/12 11:16:53;;;;;;;11.20;6.70;;;;;;;8.74;100.00;99256.44;5050896;28;20044;-81
2024/02/12 11:19:23;;;;;;;10.82;6.28;;;;;;;8.74;100.00;99254.66;5065003;28;20075;-77
2024/02/12 11:21:55;;;;;;;10.07;5.75;;;;;;;8.63;100.00;99257.06;5077663;28;20103;-77
2024/02/12 11:24:22;;;;;;;10.40;5.50;;;;;;;8.31;100.00;99203.47;5057331;28;20044;-77
2024/02/12 11:26:51;;;;;;;12.68;5.95;;;;;;;8.49;100.00;99270.19;5061682;28;20052;-77
2024/02/12 11:29:20;;;;;;;12.32;6.22;;;;;;;8.39;100.00;99274.25;5075899;28;20052;-78
2024/02/12 11:31:50;;;;;;;8.75;5.55;;;;;;;8.44;100.00;99272.22;5078609;28;20149;-77
2024/02/12 11:34:20;;;;;;;8.43;5.60;;;;;;;8.36;100.00;99271.78;5062153;28;20067;-78
2024/02/12 11:36:57;;;;;;;11.00;6.03;;;;;;;8.31;100.00;99268.53;5041185;28;20037;-78
2024/02/12 11:39:26;;;;;;;12.48;6.05;;;;;;;8.28;100.00;99272.19;5044145;28;20036;-79
2024/02/12 11:41:57;;;;;;;11.02;6.45;;;;;;;8.31;100.00;99266.75;5029161;28;20145;-77
2024/02/12 11:44:26;;;;;;;9.25;5.93;;;;;;;8.38;100.00;99273.41;5042033;28;20052;-76
2024/02/12 11:47:00;;;;;;;11.63;6.22;;;;;;;8.00;100.00;99206.97;5057567;28;20551;-80
2024/02/12 11:49:28;;;;;;;12.30;6.53;;;;;;;8.50;100.00;99271.03;5074171;28;20076;-79
2024/02/12 11:51:57;;;;;;;9.02;5.57;;;;;;;8.54;100.00;99265.50;5059034;28;20054;-77
2024/02/12 11:54:27;;;;;;;9.90;5.63;;;;;;;8.63;100.00;99278.19;5058972;28;20123;-77
2024/02/12 11:56:55;;;;;;;9.88;4.43;;;;;;;8.61;100.00;99248.38;5041567;28;20494;-75
2024/02/12 11:59:23;;;;;;;8.02;4.57;;;;;;;8.90;100.00;99269.59;5060370;28;20048;-81
2024/02/12 12:01:51;;;;;;;8.30;5.05;;;;;;;9.00;100.00;99268.97;5034574;28;20049;-79